createdAt,value
2022-08-27T00:01:49.583Z,22.02
2022-08-27T00:04:16.929Z,22.02
2022-08-27T00:06:47.412Z,21.98
2022-08-27T00:09:14.854Z,21.96
2022-08-27T00:11:43.816Z,21.91
2022-08-27T00:14:11.433Z,21.86
2022-08-27T00:16:39.511Z,21.81
2022-08-27T00:19:06.902Z,21.79
2022-08-27T00:21:34.288Z,21.75
2022-08-27T00:24:01.558Z,21.72
2022-08-27T00:26:29.275Z,21.69
2022-08-27T00:28:57.387Z,21.75
2022-08-27T00:31:27.333Z,21.77
2022-08-27T00:33:55.638Z,21.79
2022-08-27T00:36:22.992Z,21.83
2022-08-27T00:38:53.794Z,21.84
2022-08-27T00:41:21.940Z,21.85
2022-08-27T00:43:54.046Z,21.86
2022-08-27T00:46:44.819Z,21.85
2022-08-27T00:49:19.629Z,21.85
2022-08-27T00:52:00.619Z,21.81
2022-08-27T00:54:28.805Z,21.75
2022-08-27T00:56:57.435Z,21.68
2022-08-27T00:59:29.357Z,21.61
2022-08-27T01:02:16.698Z,21.54
2022-08-27T01:04:47.583Z,21.47
2022-08-27T01:07:14.847Z,21.45
2022-08-27T01:09:45.153Z,21.45
2022-08-27T01:12:14.630Z,21.44
2022-08-27T01:14:44.563Z,21.44
2022-08-27T01:17:13.541Z,21.46
2022-08-27T01:19:40.476Z,21.47
2022-08-27T01:22:30.961Z,21.51
2022-08-27T01:25:02.768Z,21.53
2022-08-27T01:27:34.507Z,21.54
2022-08-27T01:30:02.713Z,21.54
2022-08-27T01:32:33.912Z,21.54
2022-08-27T01:35:02.736Z,21.55
2022-08-27T01:37:29.959Z,21.57
2022-08-27T01:40:01.800Z,21.58
2022-08-27T01:42:40.232Z,21.59
2022-08-27T01:45:38.637Z,21.61
2022-08-27T01:48:08.239Z,21.61
2022-08-27T01:50:39.050Z,21.62
2022-08-27T01:53:12.812Z,21.60
2022-08-27T01:55:43.456Z,21.59
2022-08-27T01:58:16.309Z,21.58
2022-08-27T02:00:46.916Z,21.57
2022-08-27T02:03:14.074Z,21.57
2022-08-27T02:05:42.265Z,21.55
2022-08-27T02:08:13.484Z,21.53
2022-08-27T02:10:40.794Z,21.51
2022-08-27T02:13:08.465Z,21.50
2022-08-27T02:15:40.500Z,21.48
2022-08-27T02:18:08.507Z,21.45
2022-08-27T02:20:37.108Z,21.43
2022-08-27T02:23:05.080Z,21.41
2022-08-27T02:25:34.164Z,21.38
2022-08-27T02:28:02.150Z,21.34
2022-08-27T02:30:32.227Z,21.32
2022-08-27T02:33:01.130Z,21.30
2022-08-27T02:35:30.300Z,21.28
2022-08-27T02:37:58.453Z,21.25
2022-08-27T02:40:26.466Z,21.21
2022-08-27T02:42:54.109Z,21.18
2022-08-27T02:45:21.820Z,21.16
2022-08-27T02:47:48.918Z,21.14
2022-08-27T02:50:17.449Z,21.09
2022-08-27T02:52:46.470Z,21.07
2022-08-27T02:55:17.253Z,21.02
2022-08-27T02:57:45.614Z,20.99
2022-08-27T03:00:16.417Z,20.98
2022-08-27T03:03:10.817Z,20.94
2022-08-27T03:05:39.796Z,20.92
2022-08-27T03:08:07.957Z,20.91
2022-08-27T03:10:35.373Z,20.90
2022-08-27T03:13:02.789Z,20.91
2022-08-27T03:15:29.838Z,20.90
2022-08-27T03:18:15.462Z,20.88
2022-08-27T03:20:44.700Z,20.87
2022-08-27T03:23:14.733Z,20.88
2022-08-27T03:25:51.508Z,20.87
2022-08-27T03:28:23.294Z,20.86
2022-08-27T03:30:59.025Z,20.87
2022-08-27T03:33:29.142Z,20.84
2022-08-27T03:35:56.378Z,20.81
2022-08-27T03:38:25.204Z,20.78
2022-08-27T03:40:55.108Z,20.77
2022-08-27T03:43:23.579Z,20.74
2022-08-27T03:46:01.851Z,20.67
2022-08-27T03:48:32.050Z,20.63
2022-08-27T03:50:59.800Z,20.61
2022-08-27T03:53:28.355Z,20.60
2022-08-27T03:55:55.581Z,20.63
2022-08-27T03:58:22.706Z,20.70
2022-08-27T04:00:49.715Z,20.77
2022-08-27T04:03:19.870Z,20.79
2022-08-27T04:05:52.885Z,20.79
2022-08-27T04:08:20.189Z,20.79
2022-08-27T04:10:48.015Z,20.82
2022-08-27T04:13:15.410Z,20.87
2022-08-27T04:15:44.705Z,20.94
2022-08-27T04:18:12.768Z,21.02
2022-08-27T04:20:39.786Z,21.13
2022-08-27T04:23:07.232Z,21.29
2022-08-27T04:25:36.575Z,21.50
2022-08-27T04:28:03.924Z,21.74
2022-08-27T04:30:31.557Z,21.86
2022-08-27T04:32:59.485Z,22.07
2022-08-27T04:35:26.856Z,22.28
2022-08-27T04:37:54.356Z,22.35
2022-08-27T04:40:21.409Z,22.42
2022-08-27T04:42:52.864Z,22.41
2022-08-27T04:45:21.330Z,22.44
2022-08-27T04:47:48.675Z,22.54
2022-08-27T04:50:16.187Z,22.80
2022-08-27T04:52:43.688Z,23.03
2022-08-27T04:55:11.810Z,23.40
2022-08-27T04:57:46.127Z,23.79
2022-08-27T05:00:14.083Z,24.21
2022-08-27T05:02:41.126Z,24.53
2022-08-27T05:05:15.451Z,24.79
2022-08-27T05:07:43.991Z,25.11
2022-08-27T05:10:14.192Z,25.35
2022-08-27T05:12:44.262Z,25.18
2022-08-27T05:15:12.018Z,25.01
2022-08-27T05:17:39.125Z,24.79
2022-08-27T05:20:08.434Z,24.64
2022-08-27T05:22:39.734Z,24.37
2022-08-27T05:25:08.082Z,24.13
2022-08-27T05:27:34.905Z,24.03
2022-08-27T05:30:02.411Z,24.07
2022-08-27T05:32:29.655Z,24.09
2022-08-27T05:34:56.806Z,24.05
2022-08-27T05:37:24.251Z,23.96
2022-08-27T05:39:51.307Z,23.90
2022-08-27T05:42:19.777Z,23.87
2022-08-27T05:44:47.090Z,23.85
2022-08-27T05:47:14.116Z,23.77
2022-08-27T05:49:41.340Z,23.73
2022-08-27T05:52:12.695Z,23.65
2022-08-27T05:54:50.089Z,23.61
2022-08-27T05:57:17.855Z,23.56
2022-08-27T06:00:03.658Z,23.51
2022-08-27T06:02:31.225Z,23.44
2022-08-27T06:04:58.555Z,23.46
2022-08-27T06:07:25.655Z,23.49
2022-08-27T06:09:52.938Z,23.48
2022-08-27T06:12:28.067Z,23.54
2022-08-27T06:14:56.647Z,23.59
2022-08-27T06:17:23.834Z,23.65
2022-08-27T06:19:51.157Z,23.71
2022-08-27T06:22:18.425Z,23.74
2022-08-27T06:24:46.715Z,23.71
2022-08-27T06:27:22.594Z,23.79
2022-08-27T06:29:51.497Z,23.85
2022-08-27T06:32:18.856Z,23.95
2022-08-27T06:34:45.807Z,24.02
2022-08-27T06:37:13.115Z,24.15
2022-08-27T06:39:40.606Z,24.30
2022-08-27T06:42:11.999Z,24.49
2022-08-27T06:44:40.405Z,24.59
2022-08-27T06:49:58.877Z,24.91
2022-08-27T06:52:26.519Z,25.12
2022-08-27T06:57:37.614Z,25.38
2022-08-27T07:00:07.672Z,25.38
2022-08-27T07:02:35.090Z,25.36
2022-08-27T07:05:12.061Z,25.34
2022-08-27T07:07:44.179Z,25.37
2022-08-27T07:10:15.392Z,25.29
2022-08-27T07:12:51.160Z,25.23
2022-08-27T07:15:25.898Z,25.18
2022-08-27T07:17:58.840Z,25.08
2022-08-27T07:20:29.569Z,25.07
2022-08-27T07:23:03.270Z,25.04
2022-08-27T07:25:48.159Z,25.04
2022-08-27T07:28:16.342Z,25.09
2022-08-27T07:30:43.659Z,25.14
2022-08-27T07:33:11.349Z,25.12
2022-08-27T07:35:40.012Z,25.19
2022-08-27T07:38:13.281Z,25.33
2022-08-27T07:43:40.911Z,25.55
2022-08-27T07:46:08.354Z,25.59
2022-08-27T07:48:38.001Z,25.67
2022-08-27T07:51:05.629Z,25.76
2022-08-27T07:53:35.431Z,25.92
2022-08-27T07:56:04.540Z,26.08
2022-08-27T08:01:34.132Z,26.17
2022-08-27T08:04:01.506Z,26.28
2022-08-27T08:06:32.639Z,26.46
2022-08-27T08:09:13.121Z,26.60
2022-08-27T08:11:53.320Z,26.73
2022-08-27T08:14:23.480Z,26.76
2022-08-27T08:16:50.945Z,27.03
2022-08-27T08:19:20.707Z,27.87
2022-08-27T08:21:47.817Z,28.54
2022-08-27T08:24:18.266Z,29.36
2022-08-27T08:26:45.484Z,30.21
2022-08-27T08:29:18.058Z,30.90
2022-08-27T08:31:50.411Z,31.78
2022-08-27T08:34:19.782Z,32.42
2022-08-27T08:36:53.990Z,32.58
2022-08-27T08:39:22.552Z,32.90
2022-08-27T08:41:58.371Z,32.87
2022-08-27T08:45:07.892Z,33.04
2022-08-27T08:47:51.744Z,32.72
2022-08-27T08:51:04.728Z,33.13
2022-08-27T08:53:39.746Z,34.21
2022-08-27T08:56:29.585Z,34.94
2022-08-27T08:59:10.357Z,35.60
2022-08-27T09:01:38.503Z,36.17
2022-08-27T09:04:35.739Z,36.67
2022-08-27T09:07:31.149Z,37.22
2022-08-27T09:10:27.029Z,37.57
2022-08-27T09:12:59.438Z,37.17
2022-08-27T09:15:33.913Z,36.25
2022-08-27T09:18:14.775Z,36.58
2022-08-27T09:20:48.331Z,36.97
2022-08-27T09:23:28.447Z,37.35
2022-08-27T09:25:56.537Z,37.71
2022-08-27T09:35:13.937Z,38.29
2022-08-27T09:38:07.576Z,39.22
2022-08-27T09:40:52.107Z,38.68
2022-08-27T09:43:29.398Z,37.78
2022-08-27T09:46:21.730Z,38.02
2022-08-27T09:52:48.848Z,39.06
2022-08-27T09:55:38.051Z,39.75
2022-08-27T09:58:30.615Z,39.54
2022-08-27T10:01:21.258Z,38.89
2022-08-27T10:03:55.360Z,39.12
2022-08-27T10:06:33.048Z,39.81
2022-08-27T10:12:23.263Z,38.38
2022-08-27T10:14:55.364Z,38.92
2022-08-27T10:17:28.963Z,39.32
2022-08-27T10:20:17.258Z,39.61
2022-08-27T10:27:08.661Z,39.87
2022-08-27T10:29:52.153Z,39.77
2022-08-27T10:32:55.236Z,38.95
2022-08-27T10:35:28.543Z,38.19
2022-08-27T10:38:21.835Z,36.99
2022-08-27T10:41:02.813Z,36.14
2022-08-27T10:44:02.347Z,35.50
2022-08-27T10:47:11.265Z,35.21
2022-08-27T10:49:58.932Z,35.04
2022-08-27T10:52:53.438Z,34.70
2022-08-27T10:55:38.918Z,34.38
2022-08-27T11:02:12.201Z,33.25
2022-08-27T11:04:49.672Z,33.08
2022-08-27T11:07:43.281Z,33.04
2022-08-27T11:10:20.954Z,33.03
2022-08-27T11:12:51.888Z,32.93
2022-08-27T11:15:38.261Z,32.73
2022-08-27T11:18:41.001Z,32.26
2022-08-27T11:22:02.462Z,31.93
2022-08-27T11:27:43.524Z,31.85
2022-08-27T11:30:29.909Z,31.71
2022-08-27T11:33:02.728Z,31.52
2022-08-27T11:36:08.823Z,31.45
2022-08-27T11:39:02.007Z,31.52
2022-08-27T11:41:44.746Z,31.57
2022-08-27T11:44:32.525Z,31.41
2022-08-27T11:47:24.911Z,31.28
2022-08-27T11:49:56.407Z,31.27
2022-08-27T11:53:09.197Z,31.23
2022-08-27T11:55:40.424Z,31.10
2022-08-27T11:58:26.543Z,31.01
2022-08-27T12:00:54.563Z,31.02
2022-08-27T12:03:21.951Z,31.06
2022-08-27T12:05:52.889Z,31.19
2022-08-27T12:08:22.995Z,31.16
2022-08-27T12:11:19.001Z,31.17
2022-08-27T12:14:11.187Z,31.51
2022-08-27T12:16:48.847Z,31.58
2022-08-27T12:19:44.276Z,31.58
2022-08-27T12:22:26.670Z,31.68
2022-08-27T12:25:20.298Z,31.54
2022-08-27T12:28:06.744Z,31.47
2022-08-27T12:30:35.503Z,31.41
2022-08-27T12:33:27.538Z,31.38
2022-08-27T12:36:13.740Z,31.34
2022-08-27T12:39:05.363Z,31.26
2022-08-27T12:41:44.278Z,31.69
2022-08-27T12:47:18.496Z,31.76
2022-08-27T12:49:55.883Z,32.28
2022-08-27T12:52:33.449Z,32.39
2022-08-27T12:55:16.858Z,32.06
2022-08-27T12:58:00.629Z,31.97
2022-08-27T13:00:37.970Z,31.90
2022-08-27T13:06:29.336Z,31.63
2022-08-27T13:09:13.451Z,31.67
2022-08-27T13:11:50.354Z,31.72
2022-08-27T13:14:20.677Z,31.63
2022-08-27T13:16:59.515Z,31.46
2022-08-27T13:19:32.131Z,31.42
2022-08-27T13:22:01.746Z,31.34
2022-08-27T13:24:45.803Z,31.27
2022-08-27T13:27:13.587Z,31.22
2022-08-27T13:29:42.710Z,31.30
2022-08-27T13:32:14.552Z,31.32
2022-08-27T13:34:42.504Z,31.25
2022-08-27T13:37:30.608Z,31.21
2022-08-27T13:40:10.105Z,31.20
2022-08-27T13:42:48.119Z,31.23
2022-08-27T13:45:17.960Z,31.26
2022-08-27T13:47:48.028Z,31.24
2022-08-27T13:50:25.824Z,31.26
2022-08-27T13:53:20.169Z,31.28
2022-08-27T13:55:49.793Z,31.30
2022-08-27T13:58:27.206Z,31.27
2022-08-27T14:00:55.867Z,31.21
2022-08-27T14:03:35.579Z,31.20
2022-08-27T14:06:03.167Z,31.23
2022-08-27T14:08:36.239Z,31.32
2022-08-27T14:11:13.080Z,31.41
2022-08-27T14:13:45.187Z,31.43
2022-08-27T14:16:23.938Z,31.50
2022-08-27T14:19:02.772Z,31.53
2022-08-27T14:21:35.713Z,31.58
2022-08-27T14:24:03.536Z,31.62
2022-08-27T14:26:31.789Z,31.60
2022-08-27T14:28:59.473Z,31.45
2022-08-27T14:31:27.673Z,31.33
2022-08-27T14:33:56.126Z,31.22
2022-08-27T14:36:25.268Z,31.10
2022-08-27T14:38:52.951Z,30.94
2022-08-27T14:41:22.191Z,30.87
2022-08-27T14:55:21.434Z,30.55
2022-08-27T14:57:49.758Z,30.48
2022-08-27T15:01:02.561Z,30.39
2022-08-27T15:03:30.541Z,30.33
2022-08-27T15:05:57.670Z,30.25
2022-08-27T15:08:29.079Z,30.19
2022-08-27T15:14:11.590Z,30.05
2022-08-27T15:16:47.009Z,29.98
2022-08-27T15:19:20.531Z,29.92
2022-08-27T15:21:50.536Z,29.82
2022-08-27T15:24:26.473Z,29.76
2022-08-27T15:27:01.842Z,29.68
2022-08-27T15:29:29.523Z,29.66
2022-08-27T15:31:57.445Z,29.61
2022-08-27T15:34:24.939Z,29.53
2022-08-27T15:36:52.090Z,29.49
2022-08-27T15:39:19.685Z,29.46
2022-08-27T15:42:05.164Z,29.41
2022-08-27T15:44:33.929Z,29.36
2022-08-27T15:47:00.982Z,29.30
2022-08-27T15:49:28.455Z,29.23
2022-08-27T15:51:55.989Z,29.17
2022-08-27T15:54:27.145Z,29.10
2022-08-27T15:56:54.475Z,29.07
2022-08-27T15:59:21.789Z,29.00
2022-08-27T16:01:49.009Z,28.93
2022-08-27T16:04:16.348Z,28.83
2022-08-27T16:06:43.759Z,28.74
2022-08-27T16:09:11.772Z,28.66
2022-08-27T16:11:41.154Z,28.58
2022-08-27T16:14:11.487Z,28.51
2022-08-27T16:16:40.419Z,28.45
2022-08-27T16:19:12.577Z,28.42
2022-08-27T16:21:48.246Z,28.39
2022-08-27T16:24:21.698Z,28.34
2022-08-27T16:26:50.579Z,28.30
2022-08-27T16:29:17.999Z,28.24
2022-08-27T16:31:49.877Z,28.18
2022-08-27T16:34:21.673Z,28.12
2022-08-27T16:36:48.812Z,28.04
2022-08-27T16:39:15.833Z,27.97
2022-08-27T16:41:50.534Z,27.86
2022-08-27T16:44:18.527Z,27.78
2022-08-27T16:46:45.981Z,27.72
2022-08-27T16:49:31.670Z,27.62
2022-08-27T16:52:01.486Z,27.53
2022-08-27T16:54:29.189Z,27.45
2022-08-27T16:56:59.266Z,27.30
2022-08-27T16:59:26.793Z,27.16
2022-08-27T17:02:07.436Z,27.03
2022-08-27T17:04:41.878Z,26.83
2022-08-27T17:07:09.725Z,26.65
2022-08-27T17:12:37.369Z,26.19
2022-08-27T17:15:08.460Z,26.07
2022-08-27T17:17:38.529Z,25.98
2022-08-27T17:20:08.559Z,25.91
2022-08-27T17:22:35.905Z,25.90
2022-08-27T17:25:04.057Z,25.83
2022-08-27T17:27:31.575Z,25.71
2022-08-27T17:29:58.712Z,25.60
2022-08-27T17:32:26.785Z,25.49
2022-08-27T17:34:54.324Z,25.38
2022-08-27T17:37:21.553Z,25.35
2022-08-27T17:39:49.176Z,25.26
2022-08-27T17:42:17.963Z,25.16
2022-08-27T17:44:44.920Z,25.08
2022-08-27T17:47:12.518Z,25.02
2022-08-27T17:49:39.898Z,24.93
2022-08-27T17:52:13.367Z,24.82
2022-08-27T17:54:45.999Z,24.70
2022-08-27T17:57:25.751Z,24.59
2022-08-27T17:59:54.579Z,24.51
2022-08-27T18:02:38.982Z,24.44
2022-08-27T18:05:09.036Z,24.36
2022-08-27T18:07:39.810Z,24.28
2022-08-27T18:10:12.646Z,24.16
2022-08-27T18:12:41.331Z,24.12
2022-08-27T18:15:28.071Z,24.05
2022-08-27T18:17:59.252Z,24.02
2022-08-27T18:20:42.734Z,24.13
2022-08-27T18:23:14.656Z,24.11
2022-08-27T18:25:46.140Z,23.89
2022-08-27T18:28:16.312Z,23.72
2022-08-27T18:30:44.889Z,23.58
2022-08-27T18:33:13.105Z,23.49
2022-08-27T18:35:42.266Z,23.42
2022-08-27T18:38:10.259Z,23.30
2022-08-27T18:40:44.243Z,23.23
2022-08-27T18:43:15.990Z,23.16
2022-08-27T18:45:43.479Z,23.11
2022-08-27T18:48:16.875Z,23.11
2022-08-27T18:50:50.708Z,23.07
2022-08-27T18:53:21.636Z,23.03
2022-08-27T18:55:52.287Z,22.96
2022-08-27T18:58:32.202Z,22.88
2022-08-27T19:01:03.425Z,22.78
2022-08-27T19:03:36.627Z,22.73
2022-08-27T19:06:08.697Z,22.67
2022-08-27T19:08:39.869Z,22.58
2022-08-27T19:11:07.466Z,22.51
2022-08-27T19:13:34.738Z,22.45
2022-08-27T19:16:08.509Z,22.39
2022-08-27T19:18:38.311Z,22.32
2022-08-27T19:21:07.434Z,22.26
2022-08-27T19:23:36.435Z,22.20
2022-08-27T19:26:05.553Z,22.16
2022-08-27T19:28:39.534Z,22.11
2022-08-27T19:31:08.495Z,22.11
2022-08-27T19:33:36.652Z,22.06
2022-08-27T19:36:05.509Z,22.03
2022-08-27T19:38:34.301Z,22.01
2022-08-27T19:41:02.882Z,21.95
2022-08-27T19:43:30.645Z,21.93
2022-08-27T19:45:59.800Z,21.89
2022-08-27T19:48:26.847Z,21.83
2022-08-27T19:50:53.977Z,21.82
2022-08-27T19:53:21.281Z,21.78
2022-08-27T19:55:49.137Z,21.77
2022-08-27T19:58:18.944Z,21.74
2022-08-27T20:00:47.166Z,21.71
2022-08-27T20:03:15.877Z,21.65
2022-08-27T20:05:48.360Z,21.60
2022-08-27T20:08:16.618Z,21.55
2022-08-27T20:10:46.589Z,21.53
2022-08-27T20:13:13.969Z,21.50
2022-08-27T20:15:41.573Z,21.45
2022-08-27T20:18:10.391Z,21.44
2022-08-27T20:20:38.115Z,21.43
2022-08-27T20:23:06.849Z,21.40
2022-08-27T20:25:35.408Z,21.36
2022-08-27T20:28:12.435Z,21.35
2022-08-27T20:30:49.473Z,21.32
2022-08-27T20:33:16.940Z,21.31
2022-08-27T20:35:44.719Z,21.30
2022-08-27T20:38:12.049Z,21.27
2022-08-27T20:40:39.253Z,21.21
2022-08-27T20:43:06.350Z,21.17
2022-08-27T20:45:35.748Z,21.11
2022-08-27T20:48:04.818Z,21.08
2022-08-27T20:50:31.801Z,21.07
2022-08-27T20:52:59.176Z,21.03
2022-08-27T20:55:26.300Z,21.00
2022-08-27T20:58:11.848Z,20.96
2022-08-27T21:00:41.713Z,20.93
2022-08-27T21:03:11.669Z,20.88
2022-08-27T21:05:41.518Z,20.85
2022-08-27T21:08:08.932Z,20.80
2022-08-27T21:10:36.042Z,20.74
2022-08-27T21:13:07.346Z,20.70
2022-08-27T21:15:37.148Z,20.68
2022-08-27T21:18:04.251Z,20.66
2022-08-27T21:20:32.419Z,20.65
2022-08-27T21:23:00.353Z,20.64
2022-08-27T21:25:27.822Z,20.65
2022-08-27T21:28:00.441Z,20.63
2022-08-27T21:30:28.405Z,20.61
2022-08-27T21:32:56.156Z,20.60
2022-08-27T21:35:26.640Z,20.57
2022-08-27T21:37:59.316Z,20.55
2022-08-27T21:40:28.414Z,20.54
2022-08-27T21:42:58.434Z,20.52
2022-08-27T21:45:27.120Z,20.49
2022-08-27T21:48:18.484Z,20.48
2022-08-27T21:50:46.275Z,20.44
2022-08-27T21:53:13.497Z,20.40
2022-08-27T21:55:40.514Z,20.37
2022-08-27T21:58:10.850Z,20.33
2022-08-27T22:00:45.952Z,20.32
2022-08-27T22:03:20.160Z,20.30
2022-08-27T22:05:48.977Z,20.29
2022-08-27T22:08:20.139Z,20.28
2022-08-27T22:10:49.706Z,20.23
2022-08-27T22:13:17.019Z,20.19
2022-08-27T22:15:45.664Z,20.16
2022-08-27T22:18:13.528Z,20.13
2022-08-27T22:20:41.432Z,20.08
2022-08-27T22:23:11.540Z,20.03
2022-08-27T22:25:39.371Z,19.99
2022-08-27T22:28:06.392Z,19.95
2022-08-27T22:30:34.239Z,19.87
2022-08-27T22:33:02.013Z,19.83
2022-08-27T22:35:29.249Z,19.79
2022-08-27T22:37:56.549Z,19.74
2022-08-27T22:40:26.506Z,19.70
2022-08-27T22:42:56.252Z,19.69
2022-08-27T22:45:24.471Z,19.65
2022-08-27T22:47:51.498Z,19.63
2022-08-27T22:50:18.728Z,19.60
2022-08-27T22:52:46.560Z,19.58
2022-08-27T22:55:18.851Z,19.56
2022-08-27T22:57:51.182Z,19.53
2022-08-27T23:00:23.657Z,19.50
2022-08-27T23:02:50.811Z,19.46
2022-08-27T23:05:18.579Z,19.41
2022-08-27T23:07:47.355Z,19.40
2022-08-27T23:10:17.465Z,19.39
2022-08-27T23:12:46.700Z,19.37
2022-08-27T23:15:16.671Z,19.34
2022-08-27T23:17:44.581Z,19.34
2022-08-27T23:20:14.510Z,19.29
2022-08-27T23:22:42.541Z,19.27
2022-08-27T23:25:30.136Z,19.27
2022-08-27T23:27:59.747Z,19.24
2022-08-27T23:30:28.198Z,19.23
2022-08-27T23:32:55.803Z,19.23
2022-08-27T23:35:25.181Z,19.23
2022-08-27T23:37:53.079Z,19.24
2022-08-27T23:40:21.378Z,19.23
2022-08-27T23:42:49.835Z,19.21
2022-08-27T23:45:21.495Z,19.20
2022-08-27T23:47:48.869Z,19.18
2022-08-27T23:50:16.619Z,19.17
2022-08-27T23:52:44.072Z,19.14
2022-08-27T23:55:12.041Z,19.14
2022-08-27T23:57:39.953Z,19.13
